createdAt,value
2023-03-06T00:00:41.736Z,6.76
2023-03-06T00:03:08.687Z,6.76
2023-03-06T00:05:35.473Z,6.75
2023-03-06T00:08:02.460Z,6.74
2023-03-06T00:10:31.002Z,6.74
2023-03-06T00:13:00.438Z,6.73
2023-03-06T00:15:27.855Z,6.73
2023-03-06T00:17:54.790Z,6.70
2023-03-06T00:20:22.094Z,6.69
2023-03-06T00:22:49.943Z,6.65
2023-03-06T00:25:19.859Z,6.66
2023-03-06T00:27:47.324Z,6.67
2023-03-06T00:30:17.524Z,6.66
2023-03-06T00:32:44.701Z,6.65
2023-03-06T00:35:12.594Z,6.64
2023-03-06T00:37:40.266Z,6.62
2023-03-06T00:40:10.290Z,6.62
2023-03-06T00:42:37.062Z,6.62
2023-03-06T00:45:04.171Z,6.60
2023-03-06T00:47:30.934Z,6.57
2023-03-06T00:49:57.717Z,6.59
2023-03-06T00:52:24.532Z,6.58
2023-03-06T00:54:51.368Z,6.55
2023-03-06T00:57:18.285Z,6.56
2023-03-06T00:59:46.118Z,6.56
2023-03-06T01:02:13.154Z,6.55
2023-03-06T01:04:40.235Z,6.54
2023-03-06T01:07:06.955Z,6.53
2023-03-06T01:09:33.704Z,6.53
2023-03-06T01:12:00.489Z,6.53
2023-03-06T01:14:27.948Z,6.53
2023-03-06T01:16:54.703Z,6.53
2023-03-06T01:19:21.807Z,6.51
2023-03-06T01:21:48.592Z,6.50
2023-03-06T01:24:15.340Z,6.47
2023-03-06T01:26:42.274Z,6.49
2023-03-06T01:29:09.080Z,6.49
2023-03-06T01:31:36.054Z,6.52
2023-03-06T01:34:03.052Z,6.48
2023-03-06T01:36:29.837Z,6.47
2023-03-06T01:38:56.562Z,6.47
2023-03-06T01:41:23.375Z,6.46
2023-03-06T01:43:50.224Z,6.47
2023-03-06T01:46:21.663Z,6.46
2023-03-06T01:48:52.356Z,6.43
2023-03-06T01:51:19.385Z,6.46
2023-03-06T01:53:48.373Z,6.46
2023-03-06T01:56:15.859Z,6.42
2023-03-06T01:58:43.949Z,6.43
2023-03-06T02:01:13.112Z,6.43
2023-03-06T02:03:41.392Z,6.41
2023-03-06T02:06:08.322Z,6.41
2023-03-06T02:08:35.224Z,6.42
2023-03-06T02:11:08.152Z,6.41
2023-03-06T02:13:36.339Z,6.40
2023-03-06T02:16:03.187Z,6.38
2023-03-06T02:18:30.510Z,6.36
2023-03-06T02:21:00.783Z,6.37
2023-03-06T02:23:56.502Z,6.36
2023-03-06T02:26:24.566Z,6.35
2023-03-06T02:28:51.327Z,6.34
2023-03-06T02:31:28.780Z,6.33
2023-03-06T02:34:13.942Z,6.33
2023-03-06T02:37:00.856Z,6.33
2023-03-06T02:39:32.167Z,6.31
2023-03-06T02:41:58.986Z,6.30
2023-03-06T02:44:28.069Z,6.30
2023-03-06T02:46:54.864Z,6.30
2023-03-06T02:49:21.646Z,6.29
2023-03-06T02:51:48.385Z,6.28
2023-03-06T02:54:18.305Z,6.27
2023-03-06T02:56:45.922Z,6.27
2023-03-06T02:59:12.893Z,6.26
2023-03-06T03:01:39.680Z,6.24
2023-03-06T03:04:06.477Z,6.25
2023-03-06T03:06:33.251Z,6.27
2023-03-06T03:09:00.026Z,6.26
2023-03-06T03:11:26.762Z,6.26
2023-03-06T03:13:53.507Z,6.25
2023-03-06T03:16:20.339Z,6.23
2023-03-06T03:18:51.114Z,6.23
2023-03-06T03:21:18.234Z,6.24
2023-03-06T03:23:45.114Z,6.24
2023-03-06T03:26:18.755Z,6.23
2023-03-06T03:28:45.961Z,6.22
2023-03-06T03:31:14.059Z,6.19
2023-03-06T03:33:41.521Z,6.18
2023-03-06T03:36:08.784Z,6.19
2023-03-06T03:38:36.358Z,6.20
2023-03-06T03:41:04.018Z,6.19
2023-03-06T03:43:31.139Z,6.20
2023-03-06T03:45:57.855Z,6.14
2023-03-06T03:48:24.602Z,6.13
2023-03-06T03:50:51.755Z,6.11
2023-03-06T03:53:18.543Z,6.11
2023-03-06T03:55:48.001Z,6.08
2023-03-06T03:58:14.776Z,6.07
2023-03-06T04:00:41.515Z,6.07
2023-03-06T04:03:08.256Z,6.08
2023-03-06T04:05:35.089Z,6.09
2023-03-06T04:08:03.311Z,6.09
2023-03-06T04:10:30.196Z,6.07
2023-03-06T04:12:57.401Z,6.07
2023-03-06T04:15:24.155Z,6.05
2023-03-06T04:17:50.901Z,6.06
2023-03-06T04:20:18.279Z,6.05
2023-03-06T04:22:45.110Z,6.06
2023-03-06T04:25:11.889Z,6.05
2023-03-06T04:27:38.662Z,6.07
2023-03-06T04:30:07.052Z,6.07
2023-03-06T04:32:33.998Z,6.04
2023-03-06T04:35:00.830Z,6.02
2023-03-06T04:37:27.785Z,6.04
2023-03-06T04:39:54.521Z,6.03
2023-03-06T04:42:21.412Z,6.03
2023-03-06T04:44:48.225Z,6.02
2023-03-06T04:47:15.152Z,6.02
2023-03-06T04:49:42.352Z,6.01
2023-03-06T04:52:09.238Z,6.00
2023-03-06T04:54:36.054Z,6.01
2023-03-06T04:57:02.941Z,6.01
2023-03-06T04:59:29.705Z,5.98
2023-03-06T05:01:56.596Z,5.98
2023-03-06T05:04:23.380Z,5.96
2023-03-06T05:06:50.196Z,5.96
2023-03-06T05:09:17.048Z,5.97
2023-03-06T05:11:43.805Z,5.97
2023-03-06T05:14:10.598Z,5.98
2023-03-06T05:16:37.435Z,5.97
2023-03-06T05:19:04.284Z,5.97
2023-03-06T05:21:31.023Z,5.96
2023-03-06T05:23:57.858Z,5.97
2023-03-06T05:26:24.666Z,5.97
2023-03-06T05:28:51.447Z,5.96
2023-03-06T05:31:18.545Z,5.97
2023-03-06T05:33:45.376Z,5.97
2023-03-06T05:36:12.377Z,5.97
2023-03-06T05:38:39.138Z,5.96
2023-03-06T05:41:05.925Z,5.93
2023-03-06T05:43:32.656Z,5.93
2023-03-06T05:46:05.267Z,5.93
2023-03-06T05:48:32.817Z,5.94
2023-03-06T05:51:01.197Z,5.93
2023-03-06T05:53:29.344Z,5.91
2023-03-06T05:56:01.101Z,5.91
2023-03-06T05:58:29.478Z,5.91
2023-03-06T06:00:57.017Z,5.93
2023-03-06T06:03:24.527Z,5.92
2023-03-06T06:05:52.606Z,5.93
2023-03-06T06:08:20.971Z,5.92
2023-03-06T06:10:47.753Z,5.89
2023-03-06T06:13:14.606Z,5.91
2023-03-06T06:15:41.518Z,5.91
2023-03-06T06:18:08.380Z,5.90
2023-03-06T06:20:37.519Z,5.92
2023-03-06T06:23:05.049Z,5.93
2023-03-06T06:25:32.740Z,5.92
2023-03-06T06:27:59.563Z,5.92
2023-03-06T06:30:26.295Z,5.92
2023-03-06T06:32:53.024Z,5.92
2023-03-06T06:35:19.942Z,5.94
2023-03-06T06:37:46.753Z,5.93
2023-03-06T06:40:13.839Z,5.94
2023-03-06T06:42:40.849Z,5.96
2023-03-06T06:45:10.135Z,5.97
2023-03-06T06:47:41.708Z,5.96
2023-03-06T06:50:12.826Z,5.98
2023-03-06T06:52:40.467Z,5.96
2023-03-06T06:55:07.769Z,5.98
2023-03-06T06:57:34.497Z,6.00
2023-03-06T07:00:01.291Z,6.04
2023-03-06T07:02:28.153Z,6.06
2023-03-06T07:05:04.151Z,6.06
2023-03-06T07:07:37.315Z,6.08
2023-03-06T07:10:11.932Z,6.10
2023-03-06T07:12:38.721Z,6.10
2023-03-06T07:15:07.167Z,6.11
2023-03-06T07:17:34.191Z,6.14
2023-03-06T07:20:00.982Z,6.15
2023-03-06T07:22:30.333Z,6.17
2023-03-06T07:25:01.738Z,6.17
2023-03-06T07:27:28.517Z,6.18
2023-03-06T07:29:55.264Z,6.20
2023-03-06T07:32:22.127Z,6.23
2023-03-06T07:34:48.952Z,6.25
2023-03-06T07:37:15.737Z,6.30
2023-03-06T07:39:43.140Z,6.32
2023-03-06T07:42:13.052Z,6.35
2023-03-06T07:44:40.075Z,6.38
2023-03-06T07:47:07.474Z,6.42
2023-03-06T07:49:34.928Z,6.45
2023-03-06T07:52:02.234Z,6.50
2023-03-06T07:54:30.781Z,6.52
2023-03-06T07:56:57.565Z,6.57
2023-03-06T07:59:24.750Z,6.63
2023-03-06T08:01:53.696Z,6.65
2023-03-06T08:04:20.499Z,6.69
2023-03-06T08:06:47.280Z,6.71
2023-03-06T08:09:14.025Z,6.73
2023-03-06T08:11:40.760Z,6.77
2023-03-06T08:14:07.493Z,6.79
2023-03-06T08:16:34.338Z,6.82
2023-03-06T08:19:01.084Z,6.83
2023-03-06T08:21:29.180Z,6.86
2023-03-06T08:23:56.018Z,6.88
2023-03-06T08:26:25.905Z,6.90
2023-03-06T08:28:54.680Z,6.94
2023-03-06T08:31:27.421Z,6.99
2023-03-06T08:33:55.592Z,7.02
2023-03-06T08:36:23.920Z,7.07
2023-03-06T08:38:51.330Z,7.11
2023-03-06T08:41:19.089Z,7.15
2023-03-06T08:43:47.027Z,7.19
2023-03-06T08:46:13.891Z,7.24
2023-03-06T08:48:40.765Z,7.30
2023-03-06T08:51:11.243Z,7.33
2023-03-06T08:53:43.418Z,7.39
2023-03-06T08:56:28.580Z,7.43
2023-03-06T08:58:56.811Z,7.47
2023-03-06T09:01:35.209Z,7.51
2023-03-06T09:04:06.058Z,7.56
2023-03-06T09:06:35.482Z,7.60
2023-03-06T09:09:03.233Z,7.64
2023-03-06T09:11:30.571Z,7.68
2023-03-06T09:13:57.643Z,7.74
2023-03-06T09:16:25.141Z,7.79
2023-03-06T09:18:54.050Z,7.83
2023-03-06T09:21:22.229Z,7.90
2023-03-06T09:23:49.296Z,7.95
2023-03-06T09:26:16.128Z,8.01
2023-03-06T09:28:43.114Z,8.06
2023-03-06T09:31:12.411Z,8.11
2023-03-06T09:33:39.807Z,8.15
2023-03-06T09:36:19.049Z,8.21
2023-03-06T09:38:48.352Z,8.27
2023-03-06T09:41:27.115Z,8.31
2023-03-06T09:44:04.745Z,8.39
2023-03-06T09:47:15.962Z,8.44
2023-03-06T09:49:48.746Z,8.49
2023-03-06T09:52:36.351Z,8.56
2023-03-06T09:55:29.687Z,8.62
2023-03-06T09:58:02.826Z,8.67
2023-03-06T10:00:32.438Z,8.73
2023-03-06T10:03:05.054Z,8.76
2023-03-06T10:06:09.625Z,8.80
2023-03-06T10:08:54.349Z,8.87
2023-03-06T10:11:41.854Z,8.92
2023-03-06T10:14:23.779Z,8.98
2023-03-06T10:16:50.619Z,9.03
2023-03-06T10:19:20.137Z,9.08
2023-03-06T10:22:17.699Z,9.12
2023-03-06T10:25:01.541Z,9.16
2023-03-06T10:27:31.728Z,9.22
2023-03-06T10:30:24.074Z,9.27
2023-03-06T10:32:59.277Z,9.31
2023-03-06T10:35:33.227Z,9.37
2023-03-06T10:38:27.065Z,9.42
2023-03-06T10:41:22.583Z,9.46
2023-03-06T10:44:01.499Z,9.52
2023-03-06T10:46:37.341Z,9.58
2023-03-06T10:49:09.201Z,9.64
2023-03-06T10:51:36.067Z,9.66
2023-03-06T10:54:18.876Z,9.72
2023-03-06T10:56:47.448Z,9.76
2023-03-06T10:59:20.458Z,9.80
2023-03-06T11:01:50.336Z,9.84
2023-03-06T11:04:35.640Z,9.90
2023-03-06T11:07:19.662Z,9.95
2023-03-06T11:09:48.117Z,9.99
2023-03-06T11:12:23.287Z,10.03
2023-03-06T11:15:09.219Z,10.08
2023-03-06T11:17:46.788Z,10.12
2023-03-06T11:20:18.401Z,10.19
2023-03-06T11:23:03.363Z,10.24
2023-03-06T11:25:53.927Z,10.28
2023-03-06T11:28:26.006Z,10.32
2023-03-06T11:30:59.678Z,10.37
2023-03-06T11:33:48.704Z,10.39
2023-03-06T11:36:36.030Z,10.41
2023-03-06T11:39:14.535Z,10.43
2023-03-06T11:41:57.633Z,10.42
2023-03-06T11:44:43.510Z,10.44
2023-03-06T11:47:35.028Z,10.45
2023-03-06T11:50:10.884Z,10.48
2023-03-06T11:52:47.651Z,10.50
2023-03-06T11:55:24.458Z,10.52
2023-03-06T11:58:20.244Z,10.56
2023-03-06T12:01:01.546Z,10.59
2023-03-06T12:03:57.926Z,10.62
2023-03-06T12:06:33.672Z,10.67
2023-03-06T12:09:12.509Z,10.71
2023-03-06T12:12:07.323Z,10.76
2023-03-06T12:14:42.834Z,10.80
2023-03-06T12:17:21.465Z,10.83
2023-03-06T12:20:20.406Z,10.85
2023-03-06T12:23:14.589Z,10.87
2023-03-06T12:25:45.160Z,10.89
2023-03-06T12:28:30.495Z,10.91
2023-03-06T12:31:18.735Z,10.91
2023-03-06T12:34:14.222Z,10.91
2023-03-06T12:36:43.944Z,10.92
2023-03-06T12:39:23.248Z,10.93
2023-03-06T12:42:22.634Z,10.94
2023-03-06T12:44:52.918Z,10.95
2023-03-06T12:47:25.552Z,10.94
2023-03-06T12:50:01.266Z,10.96
2023-03-06T12:52:31.502Z,10.96
2023-03-06T12:55:05.899Z,10.99
2023-03-06T12:57:32.749Z,11.01
2023-03-06T12:59:59.595Z,11.02
2023-03-06T13:02:53.698Z,11.04
2023-03-06T13:05:29.319Z,11.06
2023-03-06T13:08:34.720Z,11.07
2023-03-06T13:11:27.342Z,11.08
2023-03-06T13:13:54.973Z,11.11
2023-03-06T13:16:31.856Z,11.10
2023-03-06T13:19:11.399Z,11.11
2023-03-06T13:21:41.287Z,11.12
2023-03-06T13:24:21.471Z,11.12
2023-03-06T13:26:48.154Z,11.13
2023-03-06T13:29:40.985Z,11.13
2023-03-06T13:32:18.765Z,11.14
2023-03-06T13:34:50.104Z,11.14
2023-03-06T13:37:16.811Z,11.15
2023-03-06T13:39:52.399Z,11.14
2023-03-06T13:42:29.331Z,11.14
2023-03-06T13:45:08.467Z,11.14
2023-03-06T13:48:33.928Z,11.13
2023-03-06T13:50:47.690Z,11.12
2023-03-06T13:53:32.898Z,11.12
2023-03-06T13:55:59.601Z,11.11
2023-03-06T13:58:50.605Z,11.12
2023-03-06T14:01:17.395Z,11.10
2023-03-06T14:03:59.508Z,11.10
2023-03-06T14:06:35.105Z,11.08
2023-03-06T14:09:11.902Z,11.07
2023-03-06T14:11:45.944Z,11.07
2023-03-06T14:14:13.117Z,11.06
2023-03-06T14:16:49.852Z,11.05
2023-03-06T14:19:19.484Z,11.04
2023-03-06T14:21:57.422Z,11.03
2023-03-06T14:24:37.074Z,11.02
2023-03-06T14:27:04.661Z,11.00
2023-03-06T14:29:33.179Z,10.99
2023-03-06T14:32:01.465Z,10.97
2023-03-06T14:34:32.333Z,10.95
2023-03-06T14:37:02.853Z,10.93
2023-03-06T14:39:43.224Z,10.92
2023-03-06T14:42:22.096Z,10.90
2023-03-06T14:45:00.915Z,10.88
2023-03-06T14:47:30.976Z,10.86
2023-03-06T14:50:27.235Z,10.83
2023-03-06T14:53:05.219Z,10.80
2023-03-06T14:55:34.990Z,10.81
2023-03-06T14:58:16.234Z,10.81
2023-03-06T15:00:46.904Z,10.80
2023-03-06T15:03:19.675Z,10.79
2023-03-06T15:05:47.624Z,10.76
2023-03-06T15:08:19.494Z,10.75
2023-03-06T15:11:06.218Z,10.73
2023-03-06T15:13:34.615Z,10.73
2023-03-06T15:16:21.604Z,10.73
2023-03-06T15:18:59.892Z,10.72
2023-03-06T15:21:29.570Z,10.70
2023-03-06T15:23:57.460Z,10.70
2023-03-06T15:26:34.201Z,10.68
2023-03-06T15:29:22.019Z,10.67
2023-03-06T15:31:49.236Z,10.66
2023-03-06T15:34:24.536Z,10.63
2023-03-06T15:36:54.419Z,10.60
2023-03-06T15:39:33.130Z,10.56
2023-03-06T15:42:38.480Z,10.55
2023-03-06T15:45:18.118Z,10.52
2023-03-06T15:47:46.162Z,10.49
2023-03-06T15:50:24.606Z,10.45
2023-03-06T15:52:51.740Z,10.42
2023-03-06T15:55:24.211Z,10.41
2023-03-06T15:57:55.546Z,10.37
2023-03-06T16:00:28.697Z,10.37
2023-03-06T16:02:59.154Z,10.34
2023-03-06T16:05:27.789Z,10.33
2023-03-06T16:07:55.178Z,10.30
2023-03-06T16:10:25.062Z,10.27
2023-03-06T16:12:56.758Z,10.27
2023-03-06T16:15:29.848Z,10.24
2023-03-06T16:17:57.666Z,10.22
2023-03-06T16:20:26.930Z,10.18
2023-03-06T16:22:54.833Z,10.17
2023-03-06T16:25:24.026Z,10.14
2023-03-06T16:27:59.607Z,10.13
2023-03-06T16:30:29.742Z,10.13
2023-03-06T16:32:57.554Z,10.11
2023-03-06T16:35:24.996Z,10.08
2023-03-06T16:37:52.417Z,10.05
2023-03-06T16:40:23.317Z,10.03
2023-03-06T16:42:50.829Z,10.02
2023-03-06T16:45:20.229Z,9.97
2023-03-06T16:47:48.203Z,9.97
2023-03-06T16:50:34.142Z,9.97
2023-03-06T16:53:01.304Z,9.95
2023-03-06T16:55:28.518Z,9.91
2023-03-06T16:57:55.680Z,9.85
2023-03-06T17:00:24.825Z,9.83
2023-03-06T17:02:52.929Z,9.80
2023-03-06T17:05:20.589Z,9.78
2023-03-06T17:07:48.134Z,9.76
2023-03-06T17:10:19.152Z,9.73
2023-03-06T17:12:46.267Z,9.71
2023-03-06T17:15:14.430Z,9.65
2023-03-06T17:17:41.657Z,9.65
2023-03-06T17:20:09.793Z,9.62
2023-03-06T17:22:38.191Z,9.58
2023-03-06T17:25:07.066Z,9.57
2023-03-06T17:27:37.116Z,9.57
2023-03-06T17:30:06.147Z,9.57
2023-03-06T17:32:33.743Z,9.56
2023-03-06T17:35:01.430Z,9.50
2023-03-06T17:37:28.698Z,9.49
2023-03-06T17:39:56.059Z,9.47
2023-03-06T17:42:24.144Z,9.45
2023-03-06T17:44:53.805Z,9.45
2023-03-06T17:47:21.918Z,9.40
2023-03-06T17:49:50.264Z,9.35
2023-03-06T17:52:18.152Z,9.36
2023-03-06T17:54:46.894Z,9.33
2023-03-06T17:57:14.093Z,9.30
2023-03-06T17:59:42.054Z,9.27
2023-03-06T18:02:10.647Z,9.22
2023-03-06T18:04:38.490Z,9.22
2023-03-06T18:07:06.109Z,9.19
2023-03-06T18:09:33.767Z,9.16
2023-03-06T18:12:01.538Z,9.12
2023-03-06T18:14:29.041Z,9.09
2023-03-06T18:16:56.264Z,9.06
2023-03-06T18:19:23.471Z,9.01
2023-03-06T18:21:52.979Z,9.01
2023-03-06T18:24:21.487Z,8.95
2023-03-06T18:26:48.637Z,8.93
2023-03-06T18:29:17.275Z,8.87
2023-03-06T18:31:46.514Z,8.83
2023-03-06T18:34:18.807Z,8.79
2023-03-06T18:36:48.694Z,8.77
2023-03-06T18:39:18.019Z,8.74
2023-03-06T18:41:45.597Z,8.72
2023-03-06T18:44:15.827Z,8.68
2023-03-06T18:46:43.360Z,8.70
2023-03-06T18:49:13.019Z,8.72
2023-03-06T18:51:42.489Z,8.69
2023-03-06T18:54:12.284Z,8.67
2023-03-06T18:56:44.783Z,8.62
2023-03-06T18:59:18.891Z,8.59
2023-03-06T19:01:48.111Z,8.53
2023-03-06T19:04:15.945Z,8.53
2023-03-06T19:06:45.217Z,8.50
2023-03-06T19:09:13.087Z,8.47
2023-03-06T19:11:41.098Z,8.46
2023-03-06T19:14:09.164Z,8.45
2023-03-06T19:16:37.173Z,8.42
2023-03-06T19:19:04.785Z,8.38
2023-03-06T19:21:35.314Z,8.38
2023-03-06T19:24:03.306Z,8.33
2023-03-06T19:26:30.603Z,8.30
2023-03-06T19:29:00.684Z,8.30
2023-03-06T19:31:29.339Z,8.32
2023-03-06T19:33:57.691Z,8.27
2023-03-06T19:36:33.642Z,8.28
2023-03-06T19:39:05.769Z,8.25
2023-03-06T19:41:33.857Z,8.22
2023-03-06T19:44:06.387Z,8.21
2023-03-06T19:46:36.400Z,8.16
2023-03-06T19:49:12.668Z,8.14
2023-03-06T19:51:40.816Z,8.13
2023-03-06T19:54:09.647Z,8.13
2023-03-06T19:56:37.348Z,8.11
2023-03-06T19:59:04.617Z,8.07
2023-03-06T20:01:32.463Z,8.06
2023-03-06T20:04:00.875Z,8.07
2023-03-06T20:06:32.127Z,8.05
2023-03-06T20:09:02.562Z,8.06
2023-03-06T20:11:31.836Z,8.00
2023-03-06T20:14:02.479Z,7.97
2023-03-06T20:16:31.578Z,7.96
2023-03-06T20:19:01.599Z,7.94
2023-03-06T20:21:32.709Z,7.98
2023-03-06T20:24:02.251Z,7.95
2023-03-06T20:26:35.138Z,7.95
2023-03-06T20:29:03.353Z,7.92
2023-03-06T20:31:32.423Z,7.90
2023-03-06T20:34:01.379Z,7.91
2023-03-06T20:36:39.334Z,7.89
2023-03-06T20:39:13.816Z,7.87
2023-03-06T20:41:42.009Z,7.85
2023-03-06T20:44:15.009Z,7.85
2023-03-06T20:46:44.607Z,7.85
2023-03-06T20:49:14.136Z,7.84
2023-03-06T20:51:42.309Z,7.84
2023-03-06T20:54:14.707Z,7.82
2023-03-06T20:56:45.317Z,7.81
2023-03-06T20:59:13.345Z,7.79
2023-03-06T21:01:43.639Z,7.80
2023-03-06T21:04:14.237Z,7.73
2023-03-06T21:06:46.992Z,7.74
2023-03-06T21:09:17.140Z,7.73
2023-03-06T21:11:46.054Z,7.70
2023-03-06T21:14:14.407Z,7.67
2023-03-06T21:16:41.709Z,7.69
2023-03-06T21:19:09.308Z,7.68
2023-03-06T21:21:36.420Z,7.67
2023-03-06T21:24:03.753Z,7.64
2023-03-06T21:26:33.868Z,7.62
2023-03-06T21:29:02.697Z,7.62
2023-03-06T21:31:30.865Z,7.62
2023-03-06T21:33:59.191Z,7.60
2023-03-06T21:36:27.656Z,7.55
2023-03-06T21:38:55.020Z,7.55
2023-03-06T21:41:26.934Z,7.54
2023-03-06T21:43:55.481Z,7.54
2023-03-06T21:46:22.666Z,7.54
2023-03-06T21:48:49.663Z,7.51
2023-03-06T21:51:19.163Z,7.50
2023-03-06T21:53:48.199Z,7.51
2023-03-06T21:56:17.279Z,7.50
2023-03-06T21:58:45.889Z,7.48
2023-03-06T22:01:16.896Z,7.47
2023-03-06T22:03:43.758Z,7.47
2023-03-06T22:06:12.246Z,7.42
2023-03-06T22:08:39.798Z,7.43
2023-03-06T22:11:15.191Z,7.42
2023-03-06T22:13:42.759Z,7.37
2023-03-06T22:16:09.846Z,7.33
2023-03-06T22:18:37.243Z,7.31
2023-03-06T22:21:12.370Z,7.32
2023-03-06T22:23:40.453Z,7.31
2023-03-06T22:26:12.862Z,7.29
2023-03-06T22:28:40.968Z,7.29
2023-03-06T22:31:14.128Z,7.32
2023-03-06T22:33:41.548Z,7.31
2023-03-06T22:36:11.567Z,7.27
2023-03-06T22:38:40.384Z,7.29
2023-03-06T22:41:08.612Z,7.28
2023-03-06T22:43:36.236Z,7.25
2023-03-06T22:46:05.777Z,7.25
2023-03-06T22:48:33.224Z,7.25
2023-03-06T22:51:14.676Z,7.23
2023-03-06T22:53:41.828Z,7.22
2023-03-06T22:56:11.809Z,7.20
2023-03-06T22:58:39.350Z,7.19
2023-03-06T23:01:08.905Z,7.19
2023-03-06T23:03:37.253Z,7.17
2023-03-06T23:06:17.035Z,7.17
2023-03-06T23:08:48.076Z,7.17
2023-03-06T23:11:17.250Z,7.14
2023-03-06T23:13:44.752Z,7.14
2023-03-06T23:16:11.965Z,7.12
2023-03-06T23:18:39.375Z,7.13
2023-03-06T23:21:12.087Z,7.15
2023-03-06T23:23:40.084Z,7.13
2023-03-06T23:26:08.542Z,7.12
2023-03-06T23:28:35.336Z,7.09
2023-03-06T23:31:09.731Z,7.07
2023-03-06T23:33:38.733Z,7.08
2023-03-06T23:36:11.660Z,7.06
2023-03-06T23:38:38.985Z,7.07
2023-03-06T23:41:09.061Z,7.04
2023-03-06T23:43:36.464Z,7.01
2023-03-06T23:46:03.540Z,7.02
2023-03-06T23:48:30.514Z,7.00
2023-03-06T23:50:57.416Z,7.00
2023-03-06T23:53:24.292Z,6.99
2023-03-06T23:55:51.914Z,6.99
2023-03-06T23:58:20.816Z,6.96
